Chipola, Louisiana
Current Conditions -  °F | °C
As of 9:53 AM on Saturday 22 Nov 2014 (Local Time) from KMCB Reporting Station
Clear Clear  
Wind Chill: 62°   Ceiling: Unl
Heat Index: 62°   Visibility: 10mi
Dew Point: 49°   Wind: 13mph
Humidity: 62%   Direction: 120°ESE
Pressure: 30.23"   Gusts: NA
Location:  30.8839°N, 90.7496°W
Report Text: KMCB 221553Z AUTO 12011KT 10SM CLR 17/09 A3023 RMK AO2 SLP233 T01670094
Loading
Personal Weather Stations






























Interactive Weather Map New forecast layout! Learn more

10-Day Weather Forecast

Advertisements
Track Severe Weather on mobile